Allensville, Ohio
Current Conditions -  °F | °C
As of 3:55 AM on Saturday 01 Nov 2014 (Local Time) from KUNI Reporting Station
Overcast Overcast  
Wind Chill: 35°   Ceiling: 700
Heat Index: 40°   Visibility: 10mi
Dew Point: 38°   Wind: 7mph
Humidity: 92%   Direction: 310°NW
Pressure: 29.91"   Gusts: NA
Location:  39.2719°N, 82.4596°W
Report Text: KUNI 010755Z AUTO 31006KT 10SM OVC007 05/03 A2991 RMK AO2 T00450033
Loading
Personal Weather Stations






























Interactive Weather Map
Tropical Storm Tracking
New forecast layout! Learn more

10-Day Weather Forecast

Advertisements
Track Severe Weather on mobile